KMKC

Charles B Wheeler Downtown Airport

Kansas City, Missouri, USA
METAR KMKC 212254Z 31009KT 10SM FEW019 OVC046 21/17 A2973 RMK AO2 RAB09E21 SLP063 P0000 T02110172
Observed Flight Rules
Jun-21 @ 22:54 UTC (58 minutes ago) Visual Flight Rules
Wind Visibility Clouds
310° at 9 knots 10 miles
  • Few at 1,900' AGL
  • Overcast at 4,600' AGL
Temperatures Readings Precipitation
Current 21°C / 70°F
Dewpoint 17°C / 63°F
Humidity 78%
Altimeter 29.73" Hg
Pressure 1006.3 hPa
Elevation 227
Current Rain 0.005
METAR KMKC 212254Z 31009KT 10SM FEW019 OVC046 21/17 A2973 RMK AO2 RAB09E21 SLP063 P0000 T02110172
Observed Flight Rules
Jun-21 @ 22:54 UTC
(58 minutes ago)
VFR
Wind Visibility
310° at 9 knots 10 miles
Clouds
  • Few at 1,900' AGL
  • Overcast at 4,600' AGL
Temperature Dewpoint
21°C / 70°F 17°C / 63°F
Humidity Altimeter Pressure
78% 29.73" Hg 1006.3 hPa
Current Rain
0.005